Greenville, Missouri
Current Conditions -  °F | °C
As of 7:53 AM on Thursday 18 Dec 2014 (Local Time) from KPOF Reporting Station
Haze Haze  
Wind Chill: -2°   Ceiling: 600
Heat Index:   Visibility: 3mi
Dew Point:   Wind: 6mph
Humidity: 92%   Direction: 50°NE
Pressure: 30.26"   Gusts: NA
Location:  37.13°N, 90.45°W
Report Text: KPOF 181353Z AUTO 05005KT 3SM BR OVC006 01/00 A3026 RMK AO2 CIG 005V009 SLP252 T00110000
Loading
Personal Weather Stations






























Interactive Weather Map New forecast layout! Learn more

10-Day Weather Forecast

Advertisements
Track Severe Weather on mobile